createdAt,value
2018-05-14T00:02:44.723Z,53.60
2018-05-14T00:07:39.074Z,52.33
2018-05-14T00:12:34.220Z,53.40
2018-05-14T00:17:28.614Z,55.27
2018-05-14T00:22:28.018Z,55.33
2018-05-14T00:27:23.191Z,59.83
2018-05-14T00:32:17.568Z,62.17
2018-05-14T00:37:11.927Z,61.93
2018-05-14T00:42:06.359Z,65.27
2018-05-14T00:47:01.643Z,67.63
2018-05-14T00:51:56.036Z,70.30
2018-05-14T00:56:50.409Z,73.50
2018-05-14T01:02:00.309Z,74.83
2018-05-14T01:06:54.693Z,73.27
2018-05-14T01:11:49.218Z,75.57
2018-05-14T01:16:43.594Z,75.47
2018-05-14T01:21:37.959Z,73.30
2018-05-14T01:26:33.095Z,77.17
2018-05-14T01:31:28.576Z,75.40
2018-05-14T01:36:22.989Z,77.10
2018-05-14T01:41:17.357Z,76.23
2018-05-14T01:46:11.831Z,69.17
2018-05-14T01:51:06.979Z,69.83
2018-05-14T01:56:01.090Z,70.47
2018-05-14T02:00:55.540Z,67.47
2018-05-14T02:05:50.752Z,68.13
2018-05-14T02:10:45.274Z,66.17
2018-05-14T02:15:50.038Z,65.33
2018-05-14T02:20:44.421Z,64.10
2018-05-14T02:25:39.592Z,60.73
2018-05-14T02:30:34.053Z,60.73
2018-05-14T02:35:29.240Z,61.00
2018-05-14T02:40:23.851Z,60.80
2018-05-14T02:45:18.240Z,60.07
2018-05-14T02:50:13.646Z,59.90
2018-05-14T02:55:08.026Z,57.87
2018-05-14T03:00:02.531Z,58.90
2018-05-14T03:10:25.816Z,56.03
2018-05-14T03:15:20.959Z,52.23
2018-05-14T03:20:16.081Z,54.10
2018-05-14T03:25:10.484Z,55.97
2018-05-14T03:30:05.448Z,52.17
2018-05-14T03:34:59.840Z,54.10
2018-05-14T03:39:54.204Z,53.93
2018-05-14T03:44:49.362Z,53.60
2018-05-14T03:49:43.754Z,51.30
2018-05-14T03:54:38.126Z,53.40
2018-05-14T03:59:50.192Z,52.30
2018-05-14T04:05:01.554Z,51.57
2018-05-14T04:09:56.672Z,52.00
2018-05-14T04:15:08.223Z,51.60
2018-05-14T04:20:14.598Z,49.60
2018-05-14T04:25:09.060Z,50.43
2018-05-14T04:30:03.953Z,48.57
2018-05-14T04:34:59.917Z,49.00
2018-05-14T04:40:08.382Z,48.03
2018-05-14T04:45:14.362Z,48.83
2018-05-14T04:50:08.981Z,48.17
2018-05-14T04:55:05.132Z,51.43
2018-05-14T04:59:59.494Z,50.27
2018-05-14T05:04:53.862Z,50.87
2018-05-14T05:09:59.540Z,51.93
2018-05-14T05:14:54.680Z,58.10
2018-05-14T05:19:50.013Z,51.43
2018-05-14T05:24:44.754Z,53.87
2018-05-14T05:29:39.274Z,52.93
2018-05-14T05:34:34.034Z,53.77
2018-05-14T05:39:28.550Z,52.60
2018-05-14T05:44:22.934Z,50.50
2018-05-14T05:49:17.862Z,51.90
2018-05-14T05:54:12.213Z,51.73
2018-05-14T05:59:06.709Z,60.90
2018-05-14T06:04:01.144Z,51.73
2018-05-14T06:08:55.556Z,52.40
2018-05-14T06:13:50.715Z,52.73
2018-05-14T06:18:48.141Z,49.30
2018-05-14T06:23:42.522Z,48.87
2018-05-14T06:28:36.915Z,50.77
2018-05-14T06:33:31.286Z,49.40
2018-05-14T06:38:25.682Z,49.13
2018-05-14T06:43:20.083Z,49.00
2018-05-14T06:48:15.340Z,49.40
2018-05-14T06:53:09.762Z,49.60
2018-05-14T06:58:04.137Z,50.47
2018-05-14T07:02:58.538Z,48.90
2018-05-14T07:07:52.888Z,48.57
2018-05-14T07:12:47.452Z,48.93
2018-05-14T07:17:41.806Z,50.27
2018-05-14T07:22:37.000Z,48.30
2018-05-14T07:27:31.400Z,48.13
2018-05-14T07:32:25.780Z,48.97
2018-05-14T07:37:20.229Z,47.57
2018-05-14T07:42:15.626Z,47.30
2018-05-14T07:47:10.036Z,46.47
2018-05-14T07:52:05.348Z,49.03
2018-05-14T07:56:59.940Z,46.73
2018-05-14T08:01:55.152Z,47.57
2018-05-14T08:06:49.608Z,48.67
2018-05-14T08:11:44.132Z,46.40
2018-05-14T08:16:38.652Z,46.33
2018-05-14T08:21:33.804Z,46.17
2018-05-14T08:26:28.214Z,46.33
2018-05-14T08:31:22.645Z,44.10
2018-05-14T08:36:17.263Z,44.27
2018-05-14T08:41:11.642Z,45.10
2018-05-14T08:46:06.254Z,43.33
2018-05-14T08:51:00.625Z,40.97
2018-05-14T08:55:55.351Z,41.30
2018-05-14T09:00:49.859Z,38.77
2018-05-14T09:05:44.371Z,36.20
2018-05-14T09:10:38.767Z,34.27
2018-05-14T09:15:33.446Z,35.90
2018-05-14T09:20:28.096Z,32.20
2018-05-14T09:25:22.911Z,32.67
2018-05-14T09:30:17.608Z,31.27
2018-05-14T09:35:12.478Z,31.10
2018-05-14T09:40:07.148Z,30.57
2018-05-14T09:45:02.005Z,33.07
2018-05-14T09:49:56.692Z,35.63
2018-05-14T09:54:51.366Z,33.37
2018-05-14T09:59:46.075Z,34.37
2018-05-14T10:04:40.732Z,34.50
2018-05-14T10:09:35.901Z,35.00
2018-05-14T10:14:30.282Z,35.63
2018-05-14T10:19:24.654Z,34.40
2018-05-14T10:24:19.913Z,34.07
2018-05-14T10:29:14.342Z,31.77
2018-05-14T10:34:08.718Z,32.47
2018-05-14T10:39:03.103Z,33.83
2018-05-14T10:43:58.463Z,32.30
2018-05-14T10:48:53.614Z,33.33
2018-05-14T10:53:47.769Z,32.30
2018-05-14T10:58:42.262Z,34.37
2018-05-14T11:03:36.803Z,32.00
2018-05-14T11:08:31.173Z,31.60
2018-05-14T11:13:25.539Z,31.77
2018-05-14T11:18:20.173Z,32.30
2018-05-14T11:23:15.335Z,33.63
2018-05-14T11:28:09.733Z,31.33
2018-05-14T11:33:04.141Z,29.73
2018-05-14T11:37:58.545Z,29.67
2018-05-14T11:42:53.148Z,31.03
2018-05-14T11:47:47.508Z,30.23
2018-05-14T11:52:43.015Z,29.77
2018-05-14T11:57:37.175Z,30.37
2018-05-14T12:02:31.619Z,29.00
2018-05-14T12:07:39.786Z,28.43
2018-05-14T12:12:48.447Z,28.37
2018-05-14T12:17:56.737Z,27.70
2018-05-14T12:23:06.135Z,25.37
2018-05-14T12:28:01.351Z,25.73
2018-05-14T12:32:55.830Z,21.57
2018-05-14T12:37:50.190Z,20.50
2018-05-14T12:42:44.750Z,18.60
2018-05-14T12:47:39.110Z,18.40
2018-05-14T12:52:34.305Z,17.67
2018-05-14T12:57:28.661Z,17.37
2018-05-14T13:02:24.441Z,16.27
2018-05-14T13:07:19.371Z,15.23
2018-05-14T13:12:13.894Z,12.50
2018-05-14T13:17:08.759Z,12.63
2018-05-14T13:22:03.169Z,11.73
2018-05-14T13:26:57.866Z,9.40
2018-05-14T13:31:51.993Z,9.80
2018-05-14T13:36:46.533Z,8.70
2018-05-14T13:41:41.106Z,9.60
2018-05-14T13:46:35.469Z,8.43
2018-05-14T13:51:30.627Z,8.50
2018-05-14T13:56:25.239Z,7.37
2018-05-14T14:01:19.925Z,6.37
2018-05-14T14:06:27.282Z,6.47
2018-05-14T14:11:22.498Z,6.80
2018-05-14T14:16:17.081Z,5.63
2018-05-14T14:21:11.451Z,5.93
2018-05-14T14:26:06.601Z,5.37
2018-05-14T14:31:00.994Z,5.50
2018-05-14T14:35:55.749Z,4.93
2018-05-14T14:40:50.644Z,4.80
2018-05-14T14:45:45.472Z,4.80
2018-05-14T14:50:39.859Z,4.60
2018-05-14T14:55:34.227Z,5.23
2018-05-14T15:00:29.409Z,4.47
2018-05-14T15:05:24.693Z,4.33
2018-05-14T15:10:19.118Z,4.43
2018-05-14T15:15:13.538Z,4.13
2018-05-14T15:20:08.303Z,4.10
2018-05-14T15:25:02.836Z,3.93
2018-05-14T15:29:57.466Z,4.07
2018-05-14T15:34:59.271Z,3.80
2018-05-14T15:40:07.297Z,3.40
2018-05-14T15:45:15.711Z,3.77
2018-05-14T15:50:23.460Z,3.40
2018-05-14T15:55:31.935Z,3.43
2018-05-14T16:00:41.709Z,3.63
2018-05-14T16:05:46.028Z,3.50
2018-05-14T16:10:47.792Z,3.90
2018-05-14T16:15:42.204Z,3.40
2018-05-14T16:20:51.453Z,3.47
2018-05-14T16:25:46.095Z,3.83
2018-05-14T16:30:40.542Z,3.30
2018-05-14T16:35:34.950Z,3.20
2018-05-14T16:40:43.942Z,3.17
2018-05-14T16:45:45.626Z,3.47
2018-05-14T16:50:41.138Z,3.13
2018-05-14T16:55:35.645Z,3.60
2018-05-14T17:00:30.028Z,3.33
2018-05-14T17:05:25.176Z,3.90
2018-05-14T17:10:19.616Z,3.90
2018-05-14T17:15:14.921Z,3.77
2018-05-14T17:20:09.295Z,3.67
2018-05-14T17:25:04.274Z,3.77
2018-05-14T17:30:03.643Z,3.60
2018-05-14T17:34:58.028Z,3.87
2018-05-14T17:39:53.174Z,4.00
2018-05-14T17:44:47.715Z,3.97
2018-05-14T17:49:42.144Z,3.60
2018-05-14T17:54:36.528Z,3.47
2018-05-14T17:59:30.965Z,3.80
2018-05-14T18:04:26.244Z,3.50
2018-05-14T18:09:20.594Z,3.63
2018-05-14T18:14:15.728Z,3.70
2018-05-14T18:19:10.843Z,3.60
2018-05-14T18:24:05.976Z,3.60
2018-05-14T18:29:06.142Z,3.93
2018-05-14T18:34:05.740Z,3.93
2018-05-14T18:39:00.141Z,3.33
2018-05-14T18:44:10.041Z,3.60
2018-05-14T18:49:04.558Z,3.90
2018-05-14T18:53:59.278Z,4.00
2018-05-14T18:58:53.638Z,4.23
2018-05-14T19:03:48.453Z,4.00
2018-05-14T19:08:42.839Z,4.40
2018-05-14T19:13:37.962Z,4.27
2018-05-14T19:18:32.590Z,4.20
2018-05-14T19:23:32.332Z,4.00
2018-05-14T19:28:32.143Z,4.30
2018-05-14T19:33:31.804Z,4.80
2018-05-14T19:38:26.308Z,3.97
2018-05-14T19:43:20.460Z,4.20
2018-05-14T19:48:15.623Z,4.23
2018-05-14T19:53:09.987Z,4.30
2018-05-14T19:58:05.596Z,4.80
2018-05-14T20:03:00.016Z,4.67
2018-05-14T20:08:08.066Z,4.20
2018-05-14T20:13:13.180Z,4.40
2018-05-14T20:18:07.536Z,4.33
2018-05-14T20:23:01.901Z,4.23
2018-05-14T20:27:57.152Z,4.23
2018-05-14T20:32:51.685Z,4.50
2018-05-14T20:37:46.331Z,3.63
2018-05-14T20:42:41.603Z,3.97
2018-05-14T20:47:36.098Z,4.10
2018-05-14T20:52:30.678Z,4.13
2018-05-14T20:57:26.008Z,4.07
2018-05-14T21:02:21.110Z,4.57
2018-05-14T21:07:16.421Z,3.93
2018-05-14T21:12:11.725Z,3.80
2018-05-14T21:17:06.400Z,4.20
2018-05-14T21:22:00.771Z,4.27
2018-05-14T21:27:12.592Z,4.20
2018-05-14T21:32:17.990Z,3.73
2018-05-14T21:37:25.976Z,4.60
2018-05-14T21:42:30.427Z,4.23
2018-05-14T21:47:34.264Z,4.00
2018-05-14T21:52:47.706Z,3.73
2018-05-14T21:57:50.006Z,4.20
2018-05-14T22:02:56.050Z,4.10
2018-05-14T22:07:58.588Z,4.47
2018-05-14T22:13:13.833Z,3.70
2018-05-14T22:18:23.470Z,4.17
2018-05-14T22:23:33.327Z,3.90
2018-05-14T22:28:40.888Z,3.80
2018-05-14T22:33:51.248Z,4.33
2018-05-14T22:39:01.076Z,4.07
2018-05-14T22:44:10.254Z,4.20
2018-05-14T22:49:04.743Z,4.23
2018-05-14T22:53:59.158Z,3.97
2018-05-14T22:58:53.502Z,4.00
2018-05-14T23:03:47.891Z,3.77
2018-05-14T23:08:42.357Z,3.67
2018-05-14T23:13:36.756Z,3.90
2018-05-14T23:18:31.138Z,3.83
2018-05-14T23:23:26.310Z,4.10
2018-05-14T23:28:20.662Z,3.80
2018-05-14T23:33:14.985Z,3.73
2018-05-14T23:38:09.329Z,3.70
2018-05-14T23:43:03.671Z,4.20
2018-05-14T23:47:58.010Z,4.17
2018-05-14T23:52:52.372Z,3.83
2018-05-14T23:57:46.715Z,4.17
